Naples, South Dakota
Current Conditions -  °F | °C
As of 8:53 AM on Monday 24 Nov 2014 (Local Time) from KATY Reporting Station
Light Snow Light Snow  
Wind Chill: -6°   Ceiling: 1500
Heat Index: 14°   Visibility: 4mi
Dew Point:   Wind: 28mph
Humidity: 77%   Direction: 340°NNW
Pressure: 29.63"   Gusts: 36mph
Location:  44.6746°N, 97.5528°W
Report Text: KATY 241453Z AUTO 34024G31KT 4SM -SN OVC015 M10/M13 A2963 RMK AO2 PK WND 34031/1445 SLP061 P0000 60000 T11001133 52025
Loading
Personal Weather Stations






























Interactive Weather Map New forecast layout! Learn more

10-Day Weather Forecast

Advertisements
Track Severe Weather on mobile